Terminal Aerodrome Forecast
Issued by NWS Mt. Holly, NJ

Home | Current Version | Previous Version | Text Only | Print | Product List | Glossary On
Versions: 1 2 3 4 5 6 7 8 9 10 11 12 13 14 15 16 17 18 19 20 21 22 23 24 25 26 27 28 29 30
000
FTUS41 KPHI 062345
TAFRDG
TAF
KRDG 062345Z 0700/0724 25004KT P6SM SCT250
     FM071400 25007KT P6SM SCT150
     FM071800 23009G18KT P6SM SCT080 OVC120
     FM072300 20006KT P6SM BKN050 OVC090=

USA.gov is the U.S. government's official web portal to all federal, state and local government web resources and services.